sensor_id;sensor_type;location;lat;lon;timestamp;temperature;humidity
43862;DHT22;29510;52.140;5.034;2023-07-02T00:02:18;17.60;1.00
43862;DHT22;29510;52.140;5.034;2023-07-02T00:12:20;17.40;1.00
43862;DHT22;29510;52.140;5.034;2023-07-02T00:22:21;17.30;1.00
43862;DHT22;29510;52.140;5.034;2023-07-02T00:32:23;17.20;1.00
43862;DHT22;29510;52.140;5.034;2023-07-02T00:42:24;16.90;1.00
43862;DHT22;29510;52.140;5.034;2023-07-02T00:52:27;16.70;1.00
43862;DHT22;29510;52.140;5.034;2023-07-02T01:02:29;16.50;1.00
43862;DHT22;29510;52.140;5.034;2023-07-02T01:12:30;16.30;1.00
43862;DHT22;29510;52.140;5.034;2023-07-02T01:22:32;16.10;1.00
43862;DHT22;29510;52.140;5.034;2023-07-02T01:32:34;15.90;1.00
43862;DHT22;29510;52.140;5.034;2023-07-02T01:42:35;15.70;1.00
43862;DHT22;29510;52.140;5.034;2023-07-02T01:52:36;15.70;1.00
43862;DHT22;29510;52.140;5.034;2023-07-02T02:02:38;15.50;1.00
43862;DHT22;29510;52.140;5.034;2023-07-02T02:12:39;15.50;1.00
43862;DHT22;29510;52.140;5.034;2023-07-02T02:22:40;15.40;1.00
43862;DHT22;29510;52.140;5.034;2023-07-02T02:42:46;15.10;1.00
43862;DHT22;29510;52.140;5.034;2023-07-02T02:52:47;14.80;1.00
43862;DHT22;29510;52.140;5.034;2023-07-02T03:02:48;14.70;1.00
43862;DHT22;29510;52.140;5.034;2023-07-02T03:12:49;14.60;1.00
43862;DHT22;29510;52.140;5.034;2023-07-02T03:22:50;14.60;1.00
43862;DHT22;29510;52.140;5.034;2023-07-02T03:32:52;14.80;1.00
43862;DHT22;29510;52.140;5.034;2023-07-02T03:42:53;14.80;1.00
43862;DHT22;29510;52.140;5.034;2023-07-02T03:52:54;14.60;1.00
43862;DHT22;29510;52.140;5.034;2023-07-02T04:02:55;14.70;1.00
43862;DHT22;29510;52.140;5.034;2023-07-02T04:12:56;14.80;1.00
43862;DHT22;29510;52.140;5.034;2023-07-02T04:22:57;14.70;1.00
43862;DHT22;29510;52.140;5.034;2023-07-02T04:32:59;14.70;1.00
43862;DHT22;29510;52.140;5.034;2023-07-02T04:43:00;14.70;1.00
43862;DHT22;29510;52.140;5.034;2023-07-02T04:53:01;14.80;1.00
43862;DHT22;29510;52.140;5.034;2023-07-02T05:03:03;15.10;1.00
43862;DHT22;29510;52.140;5.034;2023-07-02T05:13:04;15.20;1.00
43862;DHT22;29510;52.140;5.034;2023-07-02T05:23:06;15.50;1.00
43862;DHT22;29510;52.140;5.034;2023-07-02T05:33:07;15.70;1.00
43862;DHT22;29510;52.140;5.034;2023-07-02T05:43:08;16.00;1.00
43862;DHT22;29510;52.140;5.034;2023-07-02T05:53:09;16.40;1.00
43862;DHT22;29510;52.140;5.034;2023-07-02T06:03:12;16.60;1.00
43862;DHT22;29510;52.140;5.034;2023-07-02T06:13:19;17.00;1.00
43862;DHT22;29510;52.140;5.034;2023-07-02T06:23:20;17.20;1.00
43862;DHT22;29510;52.140;5.034;2023-07-02T06:33:21;17.30;1.00
43862;DHT22;29510;52.140;5.034;2023-07-02T06:43:23;17.30;1.00
43862;DHT22;29510;52.140;5.034;2023-07-02T06:53:24;17.20;1.00
43862;DHT22;29510;52.140;5.034;2023-07-02T07:03:25;17.40;1.00
43862;DHT22;29510;52.140;5.034;2023-07-02T07:13:26;17.70;1.00
43862;DHT22;29510;52.140;5.034;2023-07-02T07:23:28;17.70;1.00
43862;DHT22;29510;52.140;5.034;2023-07-02T07:33:29;17.80;1.00
43862;DHT22;29510;52.140;5.034;2023-07-02T07:43:30;17.80;1.00
43862;DHT22;29510;52.140;5.034;2023-07-02T07:53:32;18.00;1.00
43862;DHT22;29510;52.140;5.034;2023-07-02T08:03:33;18.10;1.00
43862;DHT22;29510;52.140;5.034;2023-07-02T08:13:34;18.30;1.00
43862;DHT22;29510;52.140;5.034;2023-07-02T08:23:35;18.40;1.00
43862;DHT22;29510;52.140;5.034;2023-07-02T08:33:36;18.50;1.00
43862;DHT22;29510;52.140;5.034;2023-07-02T08:43:38;18.70;1.00
43862;DHT22;29510;52.140;5.034;2023-07-02T08:53:39;18.80;1.00
43862;DHT22;29510;52.140;5.034;2023-07-02T09:03:41;18.70;1.00
43862;DHT22;29510;52.140;5.034;2023-07-02T09:13:46;19.00;1.00
43862;DHT22;29510;52.140;5.034;2023-07-02T09:23:48;19.10;1.00
43862;DHT22;29510;52.140;5.034;2023-07-02T09:33:49;19.60;1.00
43862;DHT22;29510;52.140;5.034;2023-07-02T09:43:51;19.90;1.00
43862;DHT22;29510;52.140;5.034;2023-07-02T09:53:52;20.00;1.00
43862;DHT22;29510;52.140;5.034;2023-07-02T10:03:53;20.20;1.00
43862;DHT22;29510;52.140;5.034;2023-07-02T10:13:58;20.40;1.00
43862;DHT22;29510;52.140;5.034;2023-07-02T10:24:12;20.60;1.00
43862;DHT22;29510;52.140;5.034;2023-07-02T10:34:14;20.70;1.00
43862;DHT22;29510;52.140;5.034;2023-07-02T10:44:15;20.70;1.00
43862;DHT22;29510;52.140;5.034;2023-07-02T10:54:17;20.60;1.00
43862;DHT22;29510;52.140;5.034;2023-07-02T11:04:18;20.20;1.00
43862;DHT22;29510;52.140;5.034;2023-07-02T11:14:33;20.80;1.00
43862;DHT22;29510;52.140;5.034;2023-07-02T11:24:36;21.20;1.00
43862;DHT22;29510;52.140;5.034;2023-07-02T11:34:38;21.40;1.00
43862;DHT22;29510;52.140;5.034;2023-07-02T11:44:40;21.60;1.00
43862;DHT22;29510;52.140;5.034;2023-07-02T11:54:41;21.20;1.00
43862;DHT22;29510;52.140;5.034;2023-07-02T12:04:43;21.50;1.00
43862;DHT22;29510;52.140;5.034;2023-07-02T12:14:44;22.10;1.00
43862;DHT22;29510;52.140;5.034;2023-07-02T12:24:45;22.30;1.00
43862;DHT22;29510;52.140;5.034;2023-07-02T12:34:47;22.50;1.00
43862;DHT22;29510;52.140;5.034;2023-07-02T12:44:49;22.00;1.00
43862;DHT22;29510;52.140;5.034;2023-07-02T12:54:50;22.20;1.00
43862;DHT22;29510;52.140;5.034;2023-07-02T13:04:52;21.80;1.00
43862;DHT22;29510;52.140;5.034;2023-07-02T13:14:54;21.60;1.00
43862;DHT22;29510;52.140;5.034;2023-07-02T13:24:55;22.20;1.00
43862;DHT22;29510;52.140;5.034;2023-07-02T13:34:56;22.00;1.00
43862;DHT22;29510;52.140;5.034;2023-07-02T13:44:57;22.00;1.00
43862;DHT22;29510;52.140;5.034;2023-07-02T13:54:59;21.80;1.00
43862;DHT22;29510;52.140;5.034;2023-07-02T14:05:00;21.80;1.00
43862;DHT22;29510;52.140;5.034;2023-07-02T14:15:01;21.50;1.00
43862;DHT22;29510;52.140;5.034;2023-07-02T14:25:02;21.80;1.00
43862;DHT22;29510;52.140;5.034;2023-07-02T14:35:04;21.80;1.00
43862;DHT22;29510;52.140;5.034;2023-07-02T14:45:06;21.80;1.00
43862;DHT22;29510;52.140;5.034;2023-07-02T14:55:27;22.30;1.00
43862;DHT22;29510;52.140;5.034;2023-07-02T15:05:29;21.90;1.00
43862;DHT22;29510;52.140;5.034;2023-07-02T15:15:30;21.60;1.00
43862;DHT22;29510;52.140;5.034;2023-07-02T15:25:31;21.30;1.00
43862;DHT22;29510;52.140;5.034;2023-07-02T15:35:33;21.20;1.00
43862;DHT22;29510;52.140;5.034;2023-07-02T15:45:34;21.00;1.00
43862;DHT22;29510;52.140;5.034;2023-07-02T15:55:36;21.10;1.00
43862;DHT22;29510;52.140;5.034;2023-07-02T16:05:37;21.30;1.00
43862;DHT22;29510;52.140;5.034;2023-07-02T16:15:39;21.30;1.00
43862;DHT22;29510;52.140;5.034;2023-07-02T16:25:41;21.20;1.00
43862;DHT22;29510;52.140;5.034;2023-07-02T16:35:42;21.40;1.00
43862;DHT22;29510;52.140;5.034;2023-07-02T16:45:54;21.20;1.00
43862;DHT22;29510;52.140;5.034;2023-07-02T16:56:02;21.10;1.00
43862;DHT22;29510;52.140;5.034;2023-07-02T17:06:05;20.90;1.00
43862;DHT22;29510;52.140;5.034;2023-07-02T17:16:08;20.90;1.00
43862;DHT22;29510;52.140;5.034;2023-07-02T17:26:09;20.60;1.00
43862;DHT22;29510;52.140;5.034;2023-07-02T17:36:16;20.60;1.00
43862;DHT22;29510;52.140;5.034;2023-07-02T17:46:17;20.60;1.00
43862;DHT22;29510;52.140;5.034;2023-07-02T17:56:18;20.40;1.00
43862;DHT22;29510;52.140;5.034;2023-07-02T18:06:21;20.30;1.00
43862;DHT22;29510;52.140;5.034;2023-07-02T18:16:22;20.30;1.00
43862;DHT22;29510;52.140;5.034;2023-07-02T18:26:23;20.10;1.00
43862;DHT22;29510;52.140;5.034;2023-07-02T18:36:25;19.90;1.00
43862;DHT22;29510;52.140;5.034;2023-07-02T18:46:26;19.70;1.00
43862;DHT22;29510;52.140;5.034;2023-07-02T18:56:27;19.60;1.00
43862;DHT22;29510;52.140;5.034;2023-07-02T19:06:29;19.50;1.00
43862;DHT22;29510;52.140;5.034;2023-07-02T19:16:30;19.30;1.00
43862;DHT22;29510;52.140;5.034;2023-07-02T19:26:31;19.20;1.00
43862;DHT22;29510;52.140;5.034;2023-07-02T19:36:32;19.00;1.00
43862;DHT22;29510;52.140;5.034;2023-07-02T19:46:33;19.00;1.00
43862;DHT22;29510;52.140;5.034;2023-07-02T19:56:35;19.00;1.00
43862;DHT22;29510;52.140;5.034;2023-07-02T20:06:36;18.80;1.00
43862;DHT22;29510;52.140;5.034;2023-07-02T20:16:37;18.70;1.00
43862;DHT22;29510;52.140;5.034;2023-07-02T20:26:38;18.80;1.00
43862;DHT22;29510;52.140;5.034;2023-07-02T20:36:40;18.60;1.00
43862;DHT22;29510;52.140;5.034;2023-07-02T20:46:44;18.50;1.00
43862;DHT22;29510;52.140;5.034;2023-07-02T20:56:48;18.40;1.00
43862;DHT22;29510;52.140;5.034;2023-07-02T21:06:50;18.40;1.00
43862;DHT22;29510;52.140;5.034;2023-07-02T21:16:51;18.40;1.00
43862;DHT22;29510;52.140;5.034;2023-07-02T21:26:53;18.40;1.00
43862;DHT22;29510;52.140;5.034;2023-07-02T21:36:54;18.30;1.00
43862;DHT22;29510;52.140;5.034;2023-07-02T21:46:55;18.20;1.00
43862;DHT22;29510;52.140;5.034;2023-07-02T21:56:57;18.20;1.00
43862;DHT22;29510;52.140;5.034;2023-07-02T22:06:58;18.30;1.00
43862;DHT22;29510;52.140;5.034;2023-07-02T22:16:59;18.20;1.00
43862;DHT22;29510;52.140;5.034;2023-07-02T22:27:08;18.10;1.00
43862;DHT22;29510;52.140;5.034;2023-07-02T22:37:10;18.10;1.00
43862;DHT22;29510;52.140;5.034;2023-07-02T22:47:11;18.10;1.00
43862;DHT22;29510;52.140;5.034;2023-07-02T22:57:13;18.10;1.00
43862;DHT22;29510;52.140;5.034;2023-07-02T23:07:14;18.00;1.00
43862;DHT22;29510;52.140;5.034;2023-07-02T23:17:15;18.00;1.00
43862;DHT22;29510;52.140;5.034;2023-07-02T23:27:17;18.00;1.00
43862;DHT22;29510;52.140;5.034;2023-07-02T23:37:19;17.90;1.00
43862;DHT22;29510;52.140;5.034;2023-07-02T23:47:20;17.80;1.00
43862;DHT22;29510;52.140;5.034;2023-07-02T23:57:21;17.80;1.00
